sensor_id;sensor_type;location;lat;lon;timestamp;P1;durP1;ratioP1;P2;durP2;ratioP2
48667;SDS011;34453;52.198;5.004;2023-03-02T00:00:57;52.15;;;30.55;;
48667;SDS011;34453;52.198;5.004;2023-03-02T00:03:26;53.22;;;31.08;;
48667;SDS011;34453;52.198;5.004;2023-03-02T00:05:53;48.58;;;28.83;;
48667;SDS011;34453;52.198;5.004;2023-03-02T00:08:20;53.80;;;29.35;;
48667;SDS011;34453;52.198;5.004;2023-03-02T00:10:46;54.92;;;31.23;;
48667;SDS011;34453;52.198;5.004;2023-03-02T00:13:11;55.33;;;30.25;;
48667;SDS011;34453;52.198;5.004;2023-03-02T00:15:38;53.10;;;29.48;;
48667;SDS011;34453;52.198;5.004;2023-03-02T00:18:03;56.10;;;31.05;;
48667;SDS011;34453;52.198;5.004;2023-03-02T00:20:29;59.58;;;31.73;;
48667;SDS011;34453;52.198;5.004;2023-03-02T00:22:54;54.35;;;30.73;;
48667;SDS011;34453;52.198;5.004;2023-03-02T00:25:20;60.63;;;31.40;;
48667;SDS011;34453;52.198;5.004;2023-03-02T00:27:45;66.55;;;33.72;;
48667;SDS011;34453;52.198;5.004;2023-03-02T00:30:11;66.18;;;33.53;;
48667;SDS011;34453;52.198;5.004;2023-03-02T00:32:38;57.17;;;32.40;;
48667;SDS011;34453;52.198;5.004;2023-03-02T00:35:04;62.42;;;32.55;;
48667;SDS011;34453;52.198;5.004;2023-03-02T00:37:30;56.92;;;32.70;;
48667;SDS011;34453;52.198;5.004;2023-03-02T00:39:55;68.40;;;33.78;;
48667;SDS011;34453;52.198;5.004;2023-03-02T00:42:21;65.78;;;33.92;;
48667;SDS011;34453;52.198;5.004;2023-03-02T00:44:46;58.90;;;32.63;;
48667;SDS011;34453;52.198;5.004;2023-03-02T00:47:12;62.60;;;32.78;;
48667;SDS011;34453;52.198;5.004;2023-03-02T00:49:38;60.92;;;33.63;;
48667;SDS011;34453;52.198;5.004;2023-03-02T00:52:03;69.80;;;35.03;;
48667;SDS011;34453;52.198;5.004;2023-03-02T00:54:29;65.50;;;31.13;;
48667;SDS011;34453;52.198;5.004;2023-03-02T00:56:54;65.10;;;32.13;;
48667;SDS011;34453;52.198;5.004;2023-03-02T00:59:20;62.13;;;32.42;;
48667;SDS011;34453;52.198;5.004;2023-03-02T01:01:54;68.77;;;32.63;;
48667;SDS011;34453;52.198;5.004;2023-03-02T01:04:23;70.00;;;34.72;;
48667;SDS011;34453;52.198;5.004;2023-03-02T01:06:55;71.82;;;34.40;;
48667;SDS011;34453;52.198;5.004;2023-03-02T01:09:21;63.83;;;32.75;;
48667;SDS011;34453;52.198;5.004;2023-03-02T01:11:47;69.68;;;35.50;;
48667;SDS011;34453;52.198;5.004;2023-03-02T01:14:13;75.07;;;35.65;;
48667;SDS011;34453;52.198;5.004;2023-03-02T01:16:39;64.88;;;32.95;;
48667;SDS011;34453;52.198;5.004;2023-03-02T01:19:05;67.25;;;32.75;;
48667;SDS011;34453;52.198;5.004;2023-03-02T01:21:30;69.95;;;33.58;;
48667;SDS011;34453;52.198;5.004;2023-03-02T01:23:56;80.72;;;35.47;;
48667;SDS011;34453;52.198;5.004;2023-03-02T01:26:21;76.72;;;35.00;;
48667;SDS011;34453;52.198;5.004;2023-03-02T01:28:47;63.55;;;31.60;;
48667;SDS011;34453;52.198;5.004;2023-03-02T01:31:12;67.35;;;33.53;;
48667;SDS011;34453;52.198;5.004;2023-03-02T01:33:37;65.32;;;33.33;;
48667;SDS011;34453;52.198;5.004;2023-03-02T01:36:03;67.15;;;34.05;;
48667;SDS011;34453;52.198;5.004;2023-03-02T01:38:29;63.17;;;31.23;;
48667;SDS011;34453;52.198;5.004;2023-03-02T01:40:54;65.38;;;30.90;;
48667;SDS011;34453;52.198;5.004;2023-03-02T01:43:20;67.97;;;33.88;;
48667;SDS011;34453;52.198;5.004;2023-03-02T01:45:49;77.97;;;33.30;;
48667;SDS011;34453;52.198;5.004;2023-03-02T01:48:19;64.68;;;32.30;;
48667;SDS011;34453;52.198;5.004;2023-03-02T01:50:50;63.35;;;30.83;;
48667;SDS011;34453;52.198;5.004;2023-03-02T01:53:16;63.92;;;32.38;;
48667;SDS011;34453;52.198;5.004;2023-03-02T01:55:42;66.05;;;31.13;;
48667;SDS011;34453;52.198;5.004;2023-03-02T01:58:09;62.92;;;30.50;;
48667;SDS011;34453;52.198;5.004;2023-03-02T02:00:37;63.30;;;32.90;;
48667;SDS011;34453;52.198;5.004;2023-03-02T02:03:05;62.35;;;31.98;;
48667;SDS011;34453;52.198;5.004;2023-03-02T02:05:36;58.97;;;30.90;;
48667;SDS011;34453;52.198;5.004;2023-03-02T02:08:03;67.97;;;32.70;;
48667;SDS011;34453;52.198;5.004;2023-03-02T02:10:29;61.60;;;31.30;;
48667;SDS011;34453;52.198;5.004;2023-03-02T02:12:55;63.45;;;32.33;;
48667;SDS011;34453;52.198;5.004;2023-03-02T02:15:21;59.97;;;30.55;;
48667;SDS011;34453;52.198;5.004;2023-03-02T02:17:46;57.72;;;29.30;;
48667;SDS011;34453;52.198;5.004;2023-03-02T02:20:17;61.90;;;31.02;;
48667;SDS011;34453;52.198;5.004;2023-03-02T02:33:41;65.60;;;32.45;;
48667;SDS011;34453;52.198;5.004;2023-03-02T02:36:14;58.55;;;31.02;;
48667;SDS011;34453;52.198;5.004;2023-03-02T02:38:45;57.25;;;29.73;;
48667;SDS011;34453;52.198;5.004;2023-03-02T02:41:18;59.97;;;29.85;;
48667;SDS011;34453;52.198;5.004;2023-03-02T02:43:46;66.10;;;30.50;;
48667;SDS011;34453;52.198;5.004;2023-03-02T02:46:13;55.80;;;29.55;;
48667;SDS011;34453;52.198;5.004;2023-03-02T02:48:39;62.17;;;28.40;;
48667;SDS011;34453;52.198;5.004;2023-03-02T02:51:05;61.40;;;30.23;;
48667;SDS011;34453;52.198;5.004;2023-03-02T02:56:10;60.38;;;29.00;;
48667;SDS011;34453;52.198;5.004;2023-03-02T02:58:45;60.53;;;29.23;;
48667;SDS011;34453;52.198;5.004;2023-03-02T03:01:15;60.03;;;29.63;;
48667;SDS011;34453;52.198;5.004;2023-03-02T03:03:44;58.45;;;28.05;;
48667;SDS011;34453;52.198;5.004;2023-03-02T03:06:16;62.63;;;31.40;;
48667;SDS011;34453;52.198;5.004;2023-03-02T03:11:12;58.78;;;29.38;;
48667;SDS011;34453;52.198;5.004;2023-03-02T03:13:43;58.47;;;29.35;;
48667;SDS011;34453;52.198;5.004;2023-03-02T03:16:12;62.92;;;28.65;;
48667;SDS011;34453;52.198;5.004;2023-03-02T03:18:46;61.97;;;29.77;;
48667;SDS011;34453;52.198;5.004;2023-03-02T03:21:15;63.08;;;29.75;;
48667;SDS011;34453;52.198;5.004;2023-03-02T03:23:42;67.28;;;30.02;;
48667;SDS011;34453;52.198;5.004;2023-03-02T03:26:08;64.28;;;28.52;;
48667;SDS011;34453;52.198;5.004;2023-03-02T03:28:33;67.03;;;29.33;;
48667;SDS011;34453;52.198;5.004;2023-03-02T03:30:59;51.15;;;27.17;;
48667;SDS011;34453;52.198;5.004;2023-03-02T03:33:25;57.85;;;28.95;;
48667;SDS011;34453;52.198;5.004;2023-03-02T03:35:51;60.03;;;28.65;;
48667;SDS011;34453;52.198;5.004;2023-03-02T03:38:16;60.20;;;30.73;;
48667;SDS011;34453;52.198;5.004;2023-03-02T03:40:42;60.28;;;29.08;;
48667;SDS011;34453;52.198;5.004;2023-03-02T03:43:07;65.63;;;30.80;;
48667;SDS011;34453;52.198;5.004;2023-03-02T03:45:33;60.25;;;29.83;;
48667;SDS011;34453;52.198;5.004;2023-03-02T03:47:59;59.15;;;30.17;;
48667;SDS011;34453;52.198;5.004;2023-03-02T03:50:25;58.97;;;29.83;;
48667;SDS011;34453;52.198;5.004;2023-03-02T03:52:50;59.17;;;29.15;;
48667;SDS011;34453;52.198;5.004;2023-03-02T03:55:16;64.97;;;29.00;;
48667;SDS011;34453;52.198;5.004;2023-03-02T03:57:43;62.30;;;29.50;;
48667;SDS011;34453;52.198;5.004;2023-03-02T04:00:10;60.88;;;28.90;;
48667;SDS011;34453;52.198;5.004;2023-03-02T04:02:39;58.92;;;28.48;;
48667;SDS011;34453;52.198;5.004;2023-03-02T04:05:05;61.63;;;27.85;;
48667;SDS011;34453;52.198;5.004;2023-03-02T04:07:31;60.72;;;28.15;;
48667;SDS011;34453;52.198;5.004;2023-03-02T04:09:57;61.80;;;28.05;;
48667;SDS011;34453;52.198;5.004;2023-03-02T04:12:35;61.72;;;29.80;;
48667;SDS011;34453;52.198;5.004;2023-03-02T04:15:03;52.95;;;25.73;;
48667;SDS011;34453;52.198;5.004;2023-03-02T04:17:31;55.00;;;26.00;;
48667;SDS011;34453;52.198;5.004;2023-03-02T04:19:57;52.97;;;26.83;;
48667;SDS011;34453;52.198;5.004;2023-03-02T04:22:23;60.50;;;28.92;;
48667;SDS011;34453;52.198;5.004;2023-03-02T04:24:50;57.08;;;28.25;;
48667;SDS011;34453;52.198;5.004;2023-03-02T04:27:16;53.80;;;28.13;;
48667;SDS011;34453;52.198;5.004;2023-03-02T04:29:42;53.47;;;26.33;;
48667;SDS011;34453;52.198;5.004;2023-03-02T04:32:08;57.33;;;25.40;;
48667;SDS011;34453;52.198;5.004;2023-03-02T04:34:35;55.38;;;26.95;;
48667;SDS011;34453;52.198;5.004;2023-03-02T04:37:00;50.55;;;25.70;;
48667;SDS011;34453;52.198;5.004;2023-03-02T04:39:26;55.85;;;28.40;;
48667;SDS011;34453;52.198;5.004;2023-03-02T04:41:52;57.38;;;27.52;;
48667;SDS011;34453;52.198;5.004;2023-03-02T04:44:18;52.08;;;26.27;;
48667;SDS011;34453;52.198;5.004;2023-03-02T04:46:44;57.05;;;25.13;;
48667;SDS011;34453;52.198;5.004;2023-03-02T04:49:11;57.35;;;26.38;;
48667;SDS011;34453;52.198;5.004;2023-03-02T04:51:39;53.33;;;27.35;;
48667;SDS011;34453;52.198;5.004;2023-03-02T04:54:07;50.88;;;24.40;;
48667;SDS011;34453;52.198;5.004;2023-03-02T04:56:38;49.80;;;23.70;;
48667;SDS011;34453;52.198;5.004;2023-03-02T04:59:03;54.47;;;26.17;;
48667;SDS011;34453;52.198;5.004;2023-03-02T05:01:28;52.55;;;25.95;;
48667;SDS011;34453;52.198;5.004;2023-03-02T05:03:54;52.13;;;24.73;;
48667;SDS011;34453;52.198;5.004;2023-03-02T05:06:20;62.20;;;26.85;;
48667;SDS011;34453;52.198;5.004;2023-03-02T05:08:46;51.10;;;25.67;;
48667;SDS011;34453;52.198;5.004;2023-03-02T05:11:13;51.42;;;25.13;;
48667;SDS011;34453;52.198;5.004;2023-03-02T05:13:50;49.92;;;24.27;;
48667;SDS011;34453;52.198;5.004;2023-03-02T05:18:46;50.33;;;24.60;;
48667;SDS011;34453;52.198;5.004;2023-03-02T05:21:12;51.95;;;25.65;;
48667;SDS011;34453;52.198;5.004;2023-03-02T05:23:39;51.38;;;24.63;;
48667;SDS011;34453;52.198;5.004;2023-03-02T05:26:05;48.10;;;25.50;;
48667;SDS011;34453;52.198;5.004;2023-03-02T05:28:31;50.42;;;26.27;;
48667;SDS011;34453;52.198;5.004;2023-03-02T05:30:57;54.03;;;26.08;;
48667;SDS011;34453;52.198;5.004;2023-03-02T05:33:22;54.95;;;25.95;;
48667;SDS011;34453;52.198;5.004;2023-03-02T05:35:48;55.63;;;25.38;;
48667;SDS011;34453;52.198;5.004;2023-03-02T05:38:17;53.63;;;24.83;;
48667;SDS011;34453;52.198;5.004;2023-03-02T05:40:42;51.70;;;25.33;;
48667;SDS011;34453;52.198;5.004;2023-03-02T05:43:08;53.22;;;25.77;;
48667;SDS011;34453;52.198;5.004;2023-03-02T05:45:38;47.60;;;25.48;;
48667;SDS011;34453;52.198;5.004;2023-03-02T05:48:04;52.60;;;26.58;;
48667;SDS011;34453;52.198;5.004;2023-03-02T05:50:30;51.03;;;26.20;;
48667;SDS011;34453;52.198;5.004;2023-03-02T05:52:57;59.28;;;26.77;;
48667;SDS011;34453;52.198;5.004;2023-03-02T05:55:24;49.20;;;25.73;;
48667;SDS011;34453;52.198;5.004;2023-03-02T05:57:50;47.78;;;24.17;;
48667;SDS011;34453;52.198;5.004;2023-03-02T06:00:17;59.33;;;28.23;;
48667;SDS011;34453;52.198;5.004;2023-03-02T06:02:43;50.55;;;25.65;;
48667;SDS011;34453;52.198;5.004;2023-03-02T06:05:10;60.08;;;26.65;;
48667;SDS011;34453;52.198;5.004;2023-03-02T06:07:37;53.25;;;27.00;;
48667;SDS011;34453;52.198;5.004;2023-03-02T06:10:03;59.08;;;28.20;;
48667;SDS011;34453;52.198;5.004;2023-03-02T06:12:30;55.47;;;27.27;;
48667;SDS011;34453;52.198;5.004;2023-03-02T06:14:56;56.10;;;26.35;;
48667;SDS011;34453;52.198;5.004;2023-03-02T06:17:23;53.00;;;26.02;;
48667;SDS011;34453;52.198;5.004;2023-03-02T06:19:51;58.00;;;28.05;;
48667;SDS011;34453;52.198;5.004;2023-03-02T06:22:17;56.35;;;27.13;;
48667;SDS011;34453;52.198;5.004;2023-03-02T06:24:43;56.83;;;27.35;;
48667;SDS011;34453;52.198;5.004;2023-03-02T06:27:08;53.88;;;26.38;;
48667;SDS011;34453;52.198;5.004;2023-03-02T06:29:34;59.85;;;27.20;;
48667;SDS011;34453;52.198;5.004;2023-03-02T06:31:59;58.40;;;26.98;;
48667;SDS011;34453;52.198;5.004;2023-03-02T06:34:25;53.08;;;25.70;;
48667;SDS011;34453;52.198;5.004;2023-03-02T06:36:50;56.83;;;26.88;;
48667;SDS011;34453;52.198;5.004;2023-03-02T06:39:16;52.38;;;27.45;;
48667;SDS011;34453;52.198;5.004;2023-03-02T06:41:42;54.03;;;27.00;;
48667;SDS011;34453;52.198;5.004;2023-03-02T06:44:08;58.70;;;30.42;;
48667;SDS011;34453;52.198;5.004;2023-03-02T06:46:34;62.40;;;27.40;;
48667;SDS011;34453;52.198;5.004;2023-03-02T06:49:00;54.42;;;26.23;;
48667;SDS011;34453;52.198;5.004;2023-03-02T06:51:25;57.65;;;26.92;;
48667;SDS011;34453;52.198;5.004;2023-03-02T06:53:51;60.47;;;28.15;;
48667;SDS011;34453;52.198;5.004;2023-03-02T06:56:16;60.25;;;28.17;;
48667;SDS011;34453;52.198;5.004;2023-03-02T06:58:42;57.05;;;27.40;;
48667;SDS011;34453;52.198;5.004;2023-03-02T07:01:07;56.47;;;26.85;;
48667;SDS011;34453;52.198;5.004;2023-03-02T07:03:33;55.75;;;26.15;;
48667;SDS011;34453;52.198;5.004;2023-03-02T07:06:00;59.90;;;27.02;;
48667;SDS011;34453;52.198;5.004;2023-03-02T07:08:25;57.25;;;27.35;;
48667;SDS011;34453;52.198;5.004;2023-03-02T07:10:51;61.10;;;28.13;;
48667;SDS011;34453;52.198;5.004;2023-03-02T07:13:17;56.30;;;29.13;;
48667;SDS011;34453;52.198;5.004;2023-03-02T07:15:42;59.15;;;26.08;;
48667;SDS011;34453;52.198;5.004;2023-03-02T07:18:08;52.28;;;25.95;;
48667;SDS011;34453;52.198;5.004;2023-03-02T07:20:33;60.83;;;27.40;;
48667;SDS011;34453;52.198;5.004;2023-03-02T07:22:59;56.65;;;25.65;;
48667;SDS011;34453;52.198;5.004;2023-03-02T07:25:24;60.42;;;27.73;;
48667;SDS011;34453;52.198;5.004;2023-03-02T07:27:52;57.40;;;26.10;;
48667;SDS011;34453;52.198;5.004;2023-03-02T07:30:17;56.05;;;26.77;;
48667;SDS011;34453;52.198;5.004;2023-03-02T07:32:46;56.15;;;26.25;;
48667;SDS011;34453;52.198;5.004;2023-03-02T07:35:12;71.00;;;27.83;;
48667;SDS011;34453;52.198;5.004;2023-03-02T07:37:38;58.40;;;26.48;;
48667;SDS011;34453;52.198;5.004;2023-03-02T07:40:05;50.28;;;24.35;;
48667;SDS011;34453;52.198;5.004;2023-03-02T07:42:32;52.58;;;26.40;;
48667;SDS011;34453;52.198;5.004;2023-03-02T07:44:58;57.30;;;26.83;;
48667;SDS011;34453;52.198;5.004;2023-03-02T07:47:23;56.10;;;27.98;;
48667;SDS011;34453;52.198;5.004;2023-03-02T07:49:49;62.72;;;29.38;;
48667;SDS011;34453;52.198;5.004;2023-03-02T07:52:15;47.80;;;24.13;;
48667;SDS011;34453;52.198;5.004;2023-03-02T07:54:40;58.42;;;26.67;;
48667;SDS011;34453;52.198;5.004;2023-03-02T07:57:05;57.33;;;27.02;;
48667;SDS011;34453;52.198;5.004;2023-03-02T07:59:31;48.35;;;24.70;;
48667;SDS011;34453;52.198;5.004;2023-03-02T08:01:56;58.65;;;24.92;;
48667;SDS011;34453;52.198;5.004;2023-03-02T08:04:22;50.35;;;23.95;;
48667;SDS011;34453;52.198;5.004;2023-03-02T08:06:48;48.13;;;24.73;;
48667;SDS011;34453;52.198;5.004;2023-03-02T08:09:14;53.15;;;26.58;;
48667;SDS011;34453;52.198;5.004;2023-03-02T08:11:40;46.42;;;23.70;;
48667;SDS011;34453;52.198;5.004;2023-03-02T08:14:06;52.80;;;24.98;;
48667;SDS011;34453;52.198;5.004;2023-03-02T08:16:31;43.60;;;23.10;;
48667;SDS011;34453;52.198;5.004;2023-03-02T08:18:57;47.53;;;24.05;;
48667;SDS011;34453;52.198;5.004;2023-03-02T08:21:23;43.15;;;23.70;;
48667;SDS011;34453;52.198;5.004;2023-03-02T08:23:50;43.42;;;21.88;;
48667;SDS011;34453;52.198;5.004;2023-03-02T08:26:16;45.30;;;22.00;;
48667;SDS011;34453;52.198;5.004;2023-03-02T08:28:43;46.33;;;23.40;;
48667;SDS011;34453;52.198;5.004;2023-03-02T08:31:09;42.00;;;21.88;;
48667;SDS011;34453;52.198;5.004;2023-03-02T08:33:35;44.72;;;23.15;;
48667;SDS011;34453;52.198;5.004;2023-03-02T08:36:11;54.55;;;23.80;;
48667;SDS011;34453;52.198;5.004;2023-03-02T08:38:39;40.03;;;22.17;;
48667;SDS011;34453;52.198;5.004;2023-03-02T08:41:05;45.85;;;22.90;;
48667;SDS011;34453;52.198;5.004;2023-03-02T08:43:32;37.85;;;20.70;;
48667;SDS011;34453;52.198;5.004;2023-03-02T08:45:58;41.08;;;21.90;;
48667;SDS011;34453;52.198;5.004;2023-03-02T08:48:23;41.55;;;21.42;;
48667;SDS011;34453;52.198;5.004;2023-03-02T08:50:59;41.67;;;21.73;;
48667;SDS011;34453;52.198;5.004;2023-03-02T08:53:30;37.10;;;20.23;;
48667;SDS011;34453;52.198;5.004;2023-03-02T08:55:57;34.20;;;18.38;;
48667;SDS011;34453;52.198;5.004;2023-03-02T08:58:23;33.67;;;19.60;;
48667;SDS011;34453;52.198;5.004;2023-03-02T09:00:49;34.47;;;19.30;;
48667;SDS011;34453;52.198;5.004;2023-03-02T09:03:14;37.30;;;20.13;;
48667;SDS011;34453;52.198;5.004;2023-03-02T09:05:40;40.75;;;19.20;;
48667;SDS011;34453;52.198;5.004;2023-03-02T09:08:05;37.25;;;19.50;;
48667;SDS011;34453;52.198;5.004;2023-03-02T09:10:31;31.17;;;18.13;;
48667;SDS011;34453;52.198;5.004;2023-03-02T09:12:57;32.95;;;18.35;;
48667;SDS011;34453;52.198;5.004;2023-03-02T09:15:23;28.13;;;16.70;;
48667;SDS011;34453;52.198;5.004;2023-03-02T09:17:48;34.03;;;18.17;;
48667;SDS011;34453;52.198;5.004;2023-03-02T09:20:14;34.72;;;17.27;;
48667;SDS011;34453;52.198;5.004;2023-03-02T09:22:39;43.22;;;24.02;;
48667;SDS011;34453;52.198;5.004;2023-03-02T09:25:06;34.83;;;19.50;;
48667;SDS011;34453;52.198;5.004;2023-03-02T09:27:32;33.83;;;18.85;;
48667;SDS011;34453;52.198;5.004;2023-03-02T09:29:57;52.58;;;27.02;;
48667;SDS011;34453;52.198;5.004;2023-03-02T09:32:23;45.58;;;26.48;;
48667;SDS011;34453;52.198;5.004;2023-03-02T09:34:48;36.45;;;20.48;;
48667;SDS011;34453;52.198;5.004;2023-03-02T09:37:14;37.60;;;20.95;;
48667;SDS011;34453;52.198;5.004;2023-03-02T09:39:40;29.65;;;18.17;;
48667;SDS011;34453;52.198;5.004;2023-03-02T09:42:19;34.40;;;19.20;;
48667;SDS011;34453;52.198;5.004;2023-03-02T09:45:00;29.90;;;17.52;;
48667;SDS011;34453;52.198;5.004;2023-03-02T09:47:37;28.55;;;17.90;;
48667;SDS011;34453;52.198;5.004;2023-03-02T09:50:31;27.25;;;16.25;;
48667;SDS011;34453;52.198;5.004;2023-03-02T09:55:56;28.27;;;17.15;;
48667;SDS011;34453;52.198;5.004;2023-03-02T09:58:30;26.90;;;16.95;;
48667;SDS011;34453;52.198;5.004;2023-03-02T10:01:02;27.55;;;16.77;;
48667;SDS011;34453;52.198;5.004;2023-03-02T10:03:36;28.85;;;18.13;;
48667;SDS011;34453;52.198;5.004;2023-03-02T10:06:16;31.90;;;17.42;;
48667;SDS011;34453;52.198;5.004;2023-03-02T10:08:41;27.80;;;17.45;;
48667;SDS011;34453;52.198;5.004;2023-03-02T10:11:29;29.08;;;18.40;;
48667;SDS011;34453;52.198;5.004;2023-03-02T10:14:08;26.45;;;16.15;;
48667;SDS011;34453;52.198;5.004;2023-03-02T10:16:47;29.05;;;17.30;;
48667;SDS011;34453;52.198;5.004;2023-03-02T10:22:12;23.98;;;16.23;;
48667;SDS011;34453;52.198;5.004;2023-03-02T10:27:37;29.27;;;16.08;;
48667;SDS011;34453;52.198;5.004;2023-03-02T10:33:15;28.05;;;16.38;;
48667;SDS011;34453;52.198;5.004;2023-03-02T10:35:45;30.73;;;17.35;;
48667;SDS011;34453;52.198;5.004;2023-03-02T10:38:16;25.95;;;16.20;;
48667;SDS011;34453;52.198;5.004;2023-03-02T10:40:47;30.73;;;17.08;;
48667;SDS011;34453;52.198;5.004;2023-03-02T10:43:35;28.85;;;17.33;;
48667;SDS011;34453;52.198;5.004;2023-03-02T10:46:40;29.20;;;16.70;;
48667;SDS011;34453;52.198;5.004;2023-03-02T10:49:27;28.73;;;16.10;;
48667;SDS011;34453;52.198;5.004;2023-03-02T10:52:01;30.27;;;16.58;;
48667;SDS011;34453;52.198;5.004;2023-03-02T10:54:30;22.90;;;14.63;;
48667;SDS011;34453;52.198;5.004;2023-03-02T10:56:58;28.55;;;15.95;;
48667;SDS011;34453;52.198;5.004;2023-03-02T11:04:42;27.20;;;16.30;;
48667;SDS011;34453;52.198;5.004;2023-03-02T11:07:08;29.63;;;17.48;;
48667;SDS011;34453;52.198;5.004;2023-03-02T11:09:39;24.00;;;16.05;;
48667;SDS011;34453;52.198;5.004;2023-03-02T11:12:04;28.67;;;17.33;;
48667;SDS011;34453;52.198;5.004;2023-03-02T11:14:38;24.23;;;15.63;;
48667;SDS011;34453;52.198;5.004;2023-03-02T11:17:19;27.60;;;16.50;;
48667;SDS011;34453;52.198;5.004;2023-03-02T11:19:58;29.40;;;18.15;;
48667;SDS011;34453;52.198;5.004;2023-03-02T11:22:34;25.90;;;15.65;;
48667;SDS011;34453;52.198;5.004;2023-03-02T11:25:24;25.90;;;15.82;;
48667;SDS011;34453;52.198;5.004;2023-03-02T11:28:00;25.90;;;17.25;;
48667;SDS011;34453;52.198;5.004;2023-03-02T11:30:33;24.15;;;15.20;;
48667;SDS011;34453;52.198;5.004;2023-03-02T11:33:07;21.98;;;14.10;;
48667;SDS011;34453;52.198;5.004;2023-03-02T11:35:44;24.33;;;14.73;;
48667;SDS011;34453;52.198;5.004;2023-03-02T11:38:27;20.05;;;14.20;;
48667;SDS011;34453;52.198;5.004;2023-03-02T11:44:21;30.08;;;17.38;;
48667;SDS011;34453;52.198;5.004;2023-03-02T11:46:48;29.90;;;17.35;;
48667;SDS011;34453;52.198;5.004;2023-03-02T11:49:30;25.02;;;16.95;;
48667;SDS011;34453;52.198;5.004;2023-03-02T11:52:02;31.13;;;16.35;;
48667;SDS011;34453;52.198;5.004;2023-03-02T11:57:15;28.38;;;16.33;;
48667;SDS011;34453;52.198;5.004;2023-03-02T11:59:45;29.77;;;17.25;;
48667;SDS011;34453;52.198;5.004;2023-03-02T12:02:11;26.98;;;17.33;;
48667;SDS011;34453;52.198;5.004;2023-03-02T12:04:38;23.20;;;15.48;;
48667;SDS011;34453;52.198;5.004;2023-03-02T12:07:15;26.95;;;16.08;;
48667;SDS011;34453;52.198;5.004;2023-03-02T12:09:43;24.05;;;16.50;;
48667;SDS011;34453;52.198;5.004;2023-03-02T12:12:30;26.13;;;15.63;;
48667;SDS011;34453;52.198;5.004;2023-03-02T12:14:58;29.95;;;17.80;;
48667;SDS011;34453;52.198;5.004;2023-03-02T12:20:06;27.02;;;15.88;;
48667;SDS011;34453;52.198;5.004;2023-03-02T12:22:34;28.20;;;16.55;;
48667;SDS011;34453;52.198;5.004;2023-03-02T12:25:03;26.50;;;16.17;;
48667;SDS011;34453;52.198;5.004;2023-03-02T12:27:48;31.42;;;16.52;;
48667;SDS011;34453;52.198;5.004;2023-03-02T12:32:44;25.73;;;16.50;;
48667;SDS011;34453;52.198;5.004;2023-03-02T12:35:22;25.13;;;15.73;;
48667;SDS011;34453;52.198;5.004;2023-03-02T12:46:16;22.83;;;14.02;;
48667;SDS011;34453;52.198;5.004;2023-03-02T12:51:58;27.88;;;17.77;;
48667;SDS011;34453;52.198;5.004;2023-03-02T12:54:27;24.60;;;15.75;;
48667;SDS011;34453;52.198;5.004;2023-03-02T12:57:04;29.58;;;17.45;;
48667;SDS011;34453;52.198;5.004;2023-03-02T12:59:40;29.02;;;17.50;;
48667;SDS011;34453;52.198;5.004;2023-03-02T13:04:38;26.83;;;16.97;;
48667;SDS011;34453;52.198;5.004;2023-03-02T13:07:03;28.77;;;17.75;;
48667;SDS011;34453;52.198;5.004;2023-03-02T13:09:30;24.98;;;17.33;;
48667;SDS011;34453;52.198;5.004;2023-03-02T13:11:55;32.70;;;16.58;;
48667;SDS011;34453;52.198;5.004;2023-03-02T13:14:24;28.85;;;17.30;;
48667;SDS011;34453;52.198;5.004;2023-03-02T13:17:00;28.90;;;17.50;;
48667;SDS011;34453;52.198;5.004;2023-03-02T13:19:29;24.27;;;15.40;;
48667;SDS011;34453;52.198;5.004;2023-03-02T13:21:56;31.25;;;17.23;;
48667;SDS011;34453;52.198;5.004;2023-03-02T13:26:58;30.92;;;18.40;;
48667;SDS011;34453;52.198;5.004;2023-03-02T13:29:31;29.88;;;17.15;;
48667;SDS011;34453;52.198;5.004;2023-03-02T13:32:06;29.52;;;18.25;;
48667;SDS011;34453;52.198;5.004;2023-03-02T13:34:53;31.23;;;17.55;;
48667;SDS011;34453;52.198;5.004;2023-03-02T13:37:22;27.73;;;17.02;;
48667;SDS011;34453;52.198;5.004;2023-03-02T13:39:59;23.98;;;15.65;;
48667;SDS011;34453;52.198;5.004;2023-03-02T13:42:28;27.70;;;16.80;;
48667;SDS011;34453;52.198;5.004;2023-03-02T13:47:55;29.90;;;17.73;;
48667;SDS011;34453;52.198;5.004;2023-03-02T13:50:24;27.50;;;17.00;;
48667;SDS011;34453;52.198;5.004;2023-03-02T13:52:54;28.45;;;17.80;;
48667;SDS011;34453;52.198;5.004;2023-03-02T13:55:22;30.40;;;18.52;;
48667;SDS011;34453;52.198;5.004;2023-03-02T13:57:48;31.77;;;19.65;;
48667;SDS011;34453;52.198;5.004;2023-03-02T14:00:32;32.30;;;18.05;;
48667;SDS011;34453;52.198;5.004;2023-03-02T14:02:59;29.02;;;18.63;;
48667;SDS011;34453;52.198;5.004;2023-03-02T14:05:25;34.83;;;18.88;;
48667;SDS011;34453;52.198;5.004;2023-03-02T14:07:57;36.05;;;20.00;;
48667;SDS011;34453;52.198;5.004;2023-03-02T14:10:23;35.05;;;19.00;;
48667;SDS011;34453;52.198;5.004;2023-03-02T14:12:53;31.20;;;18.98;;
48667;SDS011;34453;52.198;5.004;2023-03-02T14:15:25;33.80;;;20.55;;
48667;SDS011;34453;52.198;5.004;2023-03-02T14:17:50;34.72;;;21.45;;
48667;SDS011;34453;52.198;5.004;2023-03-02T14:20:17;35.10;;;19.95;;
48667;SDS011;34453;52.198;5.004;2023-03-02T14:22:44;36.13;;;20.98;;
48667;SDS011;34453;52.198;5.004;2023-03-02T14:25:10;31.27;;;19.75;;
48667;SDS011;34453;52.198;5.004;2023-03-02T14:27:36;29.80;;;19.02;;
48667;SDS011;34453;52.198;5.004;2023-03-02T14:30:06;34.20;;;19.00;;
48667;SDS011;34453;52.198;5.004;2023-03-02T14:32:39;30.52;;;18.95;;
48667;SDS011;34453;52.198;5.004;2023-03-02T14:35:05;29.45;;;18.70;;
48667;SDS011;34453;52.198;5.004;2023-03-02T14:37:35;26.65;;;17.70;;
48667;SDS011;34453;52.198;5.004;2023-03-02T14:40:03;32.15;;;18.38;;
48667;SDS011;34453;52.198;5.004;2023-03-02T14:42:33;28.70;;;17.42;;
48667;SDS011;34453;52.198;5.004;2023-03-02T14:44:58;26.63;;;17.60;;
48667;SDS011;34453;52.198;5.004;2023-03-02T14:47:24;28.92;;;18.33;;
48667;SDS011;34453;52.198;5.004;2023-03-02T14:49:50;24.55;;;17.55;;
48667;SDS011;34453;52.198;5.004;2023-03-02T14:52:19;25.85;;;17.52;;
48667;SDS011;34453;52.198;5.004;2023-03-02T14:54:52;30.02;;;19.60;;
48667;SDS011;34453;52.198;5.004;2023-03-02T14:57:21;26.98;;;17.95;;
48667;SDS011;34453;52.198;5.004;2023-03-02T14:59:49;28.17;;;18.83;;
48667;SDS011;34453;52.198;5.004;2023-03-02T15:02:15;28.02;;;17.95;;
48667;SDS011;34453;52.198;5.004;2023-03-02T15:04:42;26.02;;;16.77;;
48667;SDS011;34453;52.198;5.004;2023-03-02T15:07:10;28.55;;;18.85;;
48667;SDS011;34453;52.198;5.004;2023-03-02T15:09:37;20.00;;;15.23;;
48667;SDS011;34453;52.198;5.004;2023-03-02T15:12:03;28.48;;;17.30;;
48667;SDS011;34453;52.198;5.004;2023-03-02T15:14:29;23.73;;;16.83;;
48667;SDS011;34453;52.198;5.004;2023-03-02T15:16:55;24.88;;;16.55;;
48667;SDS011;34453;52.198;5.004;2023-03-02T15:19:22;24.27;;;17.50;;
48667;SDS011;34453;52.198;5.004;2023-03-02T15:21:48;26.98;;;17.45;;
48667;SDS011;34453;52.198;5.004;2023-03-02T15:24:13;26.95;;;17.73;;
48667;SDS011;34453;52.198;5.004;2023-03-02T15:26:39;24.25;;;17.20;;
48667;SDS011;34453;52.198;5.004;2023-03-02T15:29:05;28.25;;;18.80;;
48667;SDS011;34453;52.198;5.004;2023-03-02T15:31:31;29.00;;;17.55;;
48667;SDS011;34453;52.198;5.004;2023-03-02T15:33:57;24.30;;;18.00;;